»·PEaware :: N172TT KSNA-KCRQ

N172TT :: KSNA-KCRQ

FLIGHT INFORMATION

Flight Status: Arrived
Operator: Privately registered:
United States
More flights under this callsign
Pilot: Thomas T. (19955)
Aircraft: CESSNA 172 SKYHAWK
(C172)
More flights by this aircraft type
Origin: KSNA John Wayne-Orange Co
United States
Destination: KCRQ McClellan-Palomar
United States
More flights between these airports :: More routes between these airports
Route: +V23 OCN
File this flight plan on PilotEdge
Remarks: TRAING FLIGHT
Altitude:
(Current/Filed)
5,000ft
Speed:
(Current/Filed)
118kts
Departed: 25-Sep-18 11:15 AM
Arrived: 25-Sep-18 11:58 AM
Distance/Time
Traveled:
44nm/0:43
Distance/Time
To Go:
Arrived

Flight Plot

Page will automatically refresh every two minutes.


Map Options




Map Legend


Flown Route
Filed Route
Departure Airport
Arrival Airport
Navaid (VOR, NDB)
Fix

Horizontal Profiles

Position Reports

Time Latitude Longitude Heading Altitude Ground
Speed
25-Sep-18 10:37 33.677334 -117.871138 208 60ft 0kts
25-Sep-18 10:38 33.677334 -117.871138 208 60ft 0kts
25-Sep-18 10:39 33.677334 -117.871138 208 60ft 0kts
25-Sep-18 10:40 33.677334 -117.871138 208 60ft 0kts
25-Sep-18 10:41 33.677334 -117.871138 208 60ft 0kts
25-Sep-18 10:42 33.677334 -117.871138 208 60ft 0kts
25-Sep-18 10:43 33.677334 -117.871138 208 60ft 0kts
25-Sep-18 10:44 33.677334 -117.871138 208 60ft 0kts
25-Sep-18 10:45 33.677334 -117.871138 208 60ft 0kts
25-Sep-18 10:46 33.677334 -117.871138 208 60ft 0kts
25-Sep-18 10:47 33.677334 -117.871138 208 60ft 0kts
25-Sep-18 10:48 33.677334 -117.871138 208 60ft 0kts
25-Sep-18 10:49 33.677334 -117.871138 208 60ft 0kts
25-Sep-18 10:50 33.677334 -117.871138 208 60ft 0kts
25-Sep-18 10:51 33.677334 -117.871138 208 60ft 0kts
25-Sep-18 10:52 33.677334 -117.871138 208 60ft 0kts
25-Sep-18 10:53 33.677334 -117.871138 208 60ft 0kts
25-Sep-18 10:54 33.677334 -117.871138 208 60ft 0kts
25-Sep-18 10:55 33.677334 -117.871138 208 60ft 0kts
25-Sep-18 10:56 33.677334 -117.871138 208 60ft 0kts
25-Sep-18 10:57 33.677334 -117.871138 208 60ft 0kts
25-Sep-18 10:58 33.677334 -117.871138 208 60ft 0kts
25-Sep-18 10:59 33.677334 -117.871138 208 60ft 0kts
25-Sep-18 11:00 33.677334 -117.871138 208 60ft 0kts
25-Sep-18 11:01 33.677334 -117.871138 208 60ft 0kts
25-Sep-18 11:02 33.677334 -117.871138 208 60ft 0kts
25-Sep-18 11:03 33.677334 -117.871138 208 60ft 0kts
25-Sep-18 11:04 33.677334 -117.871138 208 60ft 0kts
25-Sep-18 11:05 33.677305 -117.871160 243 60ft 4kts
25-Sep-18 11:06 33.676602 -117.871235 123 60ft 0kts
25-Sep-18 11:07 33.676602 -117.871235 123 60ft 0kts
25-Sep-18 11:08 33.676602 -117.871235 123 60ft 0kts
25-Sep-18 11:09 33.676532 -117.869785 28 60ft 9kts
25-Sep-18 11:10 33.680831 -117.867231 28 60ft 16kts
25-Sep-18 11:11 33.681891 -117.866324 75 60ft 0kts
25-Sep-18 11:12 33.681891 -117.866324 75 60ft 0kts
25-Sep-18 11:13 33.681891 -117.866324 75 60ft 0kts
25-Sep-18 11:14 33.681891 -117.866324 75 60ft 0kts
25-Sep-18 11:15 33.681891 -117.866323 76 60ft 0kts
25-Sep-18 11:16 33.681115 -117.865392 206 60ft 14kts
25-Sep-18 11:17 33.664379 -117.878128 210 605ft 88kts
25-Sep-18 11:18 33.637898 -117.883350 184 1201ft 107kts
25-Sep-18 11:19 33.607652 -117.887020 184 1801ft 110kts
25-Sep-18 11:20 33.580167 -117.878629 128 2404ft 109kts
25-Sep-18 11:21 33.568250 -117.846468 112 2993ft 97kts
25-Sep-18 11:22 33.558877 -117.819568 117 3563ft 87kts
25-Sep-18 11:23 33.548463 -117.794699 117 4150ft 83kts
25-Sep-18 11:24 33.534791 -117.773729 130 4740ft 78kts
25-Sep-18 11:25 33.519122 -117.750153 128 4946ft 112kts
25-Sep-18 11:26 33.499238 -117.722822 134 4946ft 112kts
25-Sep-18 11:27 33.478332 -117.697258 135 5122ft 111kts
25-Sep-18 11:28 33.457350 -117.671498 135 5123ft 116kts
25-Sep-18 11:29 33.436180 -117.645376 135 5122ft 117kts
25-Sep-18 11:30 33.415106 -117.619308 135 5122ft 117kts
25-Sep-18 11:31 33.393804 -117.592980 135 5122ft 118kts
25-Sep-18 11:32 33.371837 -117.565903 135 5122ft 119kts
25-Sep-18 11:33 33.361693 -117.538109 103 5123ft 121kts
25-Sep-18 11:34 33.353306 -117.495079 103 5124ft 122kts
25-Sep-18 11:35 33.346087 -117.459381 103 5125ft 122kts
25-Sep-18 11:36 33.339766 -117.430985 104 5126ft 121kts
25-Sep-18 11:37 33.332096 -117.398799 104 5125ft 119kts
25-Sep-18 11:38 33.324496 -117.366735 104 5125ft 119kts
25-Sep-18 11:39 33.315164 -117.327080 104 5125ft 119kts
25-Sep-18 11:40 33.308503 -117.296117 101 5125ft 119kts
25-Sep-18 11:41 33.301240 -117.257984 101 5126ft 119kts
25-Sep-18 11:42 33.294383 -117.219360 101 5127ft 119kts
25-Sep-18 11:43 33.287937 -117.183287 101 4845ft 123kts
25-Sep-18 11:44 33.281793 -117.149054 101 4503ft 123kts
25-Sep-18 11:45 33.273050 -117.112891 126 4168ft 121kts
25-Sep-18 11:46 33.258322 -117.094278 133 3918ft 124kts
25-Sep-18 11:47 33.240136 -117.071513 132 3615ft 125kts
25-Sep-18 11:48 33.222429 -117.049006 132 3569ft 115kts
25-Sep-18 11:49 33.204413 -117.026173 132 3569ft 113kts
25-Sep-18 11:50 33.185881 -117.005412 164 3564ft 114kts
25-Sep-18 11:51 33.170355 -117.021804 252 3554ft 109kts
25-Sep-18 11:52 33.163588 -117.049362 263 3554ft 109kts
25-Sep-18 11:53 33.160855 -117.078452 259 3555ft 110kts
25-Sep-18 11:54 33.155968 -117.106935 258 3348ft 113kts
25-Sep-18 11:55 33.151623 -117.137119 261 2793ft 121kts
25-Sep-18 11:56 33.145482 -117.174493 254 2091ft 114kts
25-Sep-18 11:57 33.139639 -117.207774 261 1485ft 93kts
25-Sep-18 11:58 33.136233 -117.233165 255 1059ft 75kts
25-Sep-18 11:59 33.131808 -117.258167 258 643ft 79kts
25-Sep-18 12:00 33.128395 -117.278782 237 309ft 21kts
25-Sep-18 12:01 33.126878 -117.280240 220 309ft 11kts

Navigation Log

Ident Type
Flight plan parsing failed, navigation log unavailable